createdAt,value
2018-02-24T00:00:49.449Z,16.60
2018-02-24T00:03:17.030Z,15.57
2018-02-24T00:05:45.541Z,15.93
2018-02-24T00:08:13.047Z,15.27
2018-02-24T00:10:40.562Z,15.00
2018-02-24T00:13:08.077Z,16.05
2018-02-24T00:15:35.617Z,15.52
2018-02-24T00:18:03.157Z,16.37
2018-02-24T00:20:30.673Z,15.23
2018-02-24T00:22:58.193Z,15.57
2018-02-24T00:25:26.717Z,14.48
2018-02-24T00:27:54.205Z,15.50
2018-02-24T00:30:22.729Z,14.60
2018-02-24T00:32:51.236Z,15.73
2018-02-24T00:35:18.762Z,15.55
2018-02-24T00:37:47.283Z,15.00
2018-02-24T00:40:15.797Z,15.75
2018-02-24T00:42:44.315Z,16.75
2018-02-24T00:45:11.836Z,14.85
2018-02-24T00:47:39.351Z,16.05
2018-02-24T00:50:06.857Z,16.23
2018-02-24T00:52:34.376Z,15.82
2018-02-24T00:55:01.893Z,14.40
2018-02-24T00:57:29.232Z,16.42
2018-02-24T00:59:56.749Z,16.10
2018-02-24T01:02:24.253Z,17.37
2018-02-24T01:04:51.765Z,15.60
2018-02-24T01:07:19.262Z,16.70
2018-02-24T01:09:46.753Z,17.30
2018-02-24T01:12:14.281Z,16.40
2018-02-24T01:14:41.789Z,16.10
2018-02-24T01:17:09.301Z,16.70
2018-02-24T01:19:36.838Z,16.77
2018-02-24T01:22:04.344Z,17.12
2018-02-24T01:24:31.839Z,16.77
2018-02-24T01:26:59.355Z,17.12
2018-02-24T01:29:26.865Z,17.67
2018-02-24T01:31:54.396Z,16.20
2018-02-24T01:34:21.909Z,16.00
2018-02-24T01:36:49.413Z,17.55
2018-02-24T01:39:16.941Z,17.48
2018-02-24T01:41:44.445Z,17.40
2018-02-24T01:44:11.967Z,17.08
2018-02-24T01:46:39.476Z,17.10
2018-02-24T01:49:07.002Z,16.85
2018-02-24T01:51:34.526Z,17.50
2018-02-24T01:54:02.037Z,17.67
2018-02-24T01:56:29.560Z,18.50
2018-02-24T01:58:58.081Z,19.62
2018-02-24T02:01:25.626Z,16.70
2018-02-24T02:03:53.134Z,17.00
2018-02-24T02:06:20.650Z,16.50
2018-02-24T02:08:48.162Z,15.80
2018-02-24T02:11:15.707Z,17.37
2018-02-24T02:13:43.241Z,18.65
2018-02-24T02:16:10.757Z,18.75
2018-02-24T02:18:38.301Z,17.55
2018-02-24T02:21:05.809Z,17.15
2018-02-24T02:23:33.322Z,18.40
2018-02-24T02:26:00.869Z,19.08
2018-02-24T02:28:28.382Z,19.17
2018-02-24T02:30:55.906Z,19.55
2018-02-24T02:33:23.418Z,17.45
2018-02-24T02:35:52.889Z,18.12
2018-02-24T02:38:22.349Z,19.48
2018-02-24T02:40:50.917Z,17.45
2018-02-24T02:43:18.438Z,17.30
2018-02-24T02:45:45.949Z,19.42
2018-02-24T02:48:13.466Z,18.90
2018-02-24T02:50:40.978Z,19.67
2018-02-24T02:53:08.490Z,18.77
2018-02-24T02:55:36.001Z,18.98
2018-02-24T02:58:03.523Z,18.90
2018-02-24T03:00:31.035Z,18.95
2018-02-24T03:02:58.547Z,17.25
2018-02-24T03:05:26.058Z,19.27
2018-02-24T03:07:53.567Z,19.20
2018-02-24T03:10:21.090Z,17.87
2018-02-24T03:12:48.611Z,19.35
2018-02-24T03:15:16.108Z,17.55
2018-02-24T03:17:43.621Z,17.25
2018-02-24T03:20:11.145Z,18.40
2018-02-24T03:22:38.687Z,17.77
2018-02-24T03:25:06.205Z,18.08
2018-02-24T03:27:33.714Z,16.75
2018-02-24T03:30:01.230Z,18.02
2018-02-24T03:32:28.765Z,20.05
2018-02-24T03:34:56.286Z,18.40
2018-02-24T03:37:23.613Z,17.42
2018-02-24T03:39:51.123Z,17.15
2018-02-24T03:42:18.460Z,18.20
2018-02-24T03:44:45.815Z,19.40
2018-02-24T03:47:13.330Z,18.15
2018-02-24T03:49:41.657Z,19.20
2018-02-24T03:52:09.173Z,17.10
2018-02-24T03:54:36.689Z,18.35
2018-02-24T03:57:04.243Z,20.35
2018-02-24T03:59:31.774Z,18.92
2018-02-24T04:01:59.285Z,18.42
2018-02-24T04:04:26.621Z,18.45
2018-02-24T04:06:54.152Z,17.92
2018-02-24T04:09:21.672Z,18.12
2018-02-24T04:11:49.013Z,17.17
2018-02-24T04:14:16.539Z,17.08
2018-02-24T04:16:44.076Z,16.95
2018-02-24T04:19:11.421Z,17.27
2018-02-24T04:21:38.928Z,17.90
2018-02-24T04:24:06.446Z,16.25
2018-02-24T04:26:33.966Z,18.40
2018-02-24T04:29:01.468Z,17.87
2018-02-24T04:31:28.992Z,18.42
2018-02-24T04:33:56.513Z,17.65
2018-02-24T04:36:24.028Z,16.62
2018-02-24T04:38:51.536Z,18.05
2018-02-24T04:41:19.053Z,18.17
2018-02-24T04:43:46.588Z,18.17
2018-02-24T04:46:14.105Z,19.25
2018-02-24T04:48:41.629Z,18.80
2018-02-24T04:51:09.278Z,17.92
2018-02-24T04:53:36.802Z,17.95
2018-02-24T04:56:04.314Z,18.67
2018-02-24T04:58:31.855Z,18.30
2018-02-24T05:00:59.369Z,18.20
2018-02-24T05:03:26.889Z,18.80
2018-02-24T05:05:54.393Z,17.27
2018-02-24T05:08:21.917Z,17.80
2018-02-24T05:10:49.433Z,17.37
2018-02-24T05:13:16.944Z,18.20
2018-02-24T05:15:44.462Z,17.10
2018-02-24T05:18:11.970Z,17.95
2018-02-24T05:20:39.487Z,19.35
2018-02-24T05:23:07.006Z,18.60
2018-02-24T05:25:34.513Z,17.02
2018-02-24T05:28:02.058Z,18.58
2018-02-24T05:30:29.575Z,18.27
2018-02-24T05:32:57.094Z,18.40
2018-02-24T05:35:24.608Z,19.00
2018-02-24T05:37:52.127Z,19.12
2018-02-24T05:40:19.633Z,18.23
2018-02-24T05:42:47.141Z,17.67
2018-02-24T05:45:14.673Z,18.17
2018-02-24T05:47:42.189Z,18.48
2018-02-24T05:50:09.710Z,18.80
2018-02-24T05:52:37.230Z,18.33
2018-02-24T05:55:04.741Z,17.98
2018-02-24T05:57:32.249Z,17.75
2018-02-24T05:59:59.774Z,19.08
2018-02-24T06:02:27.288Z,17.42
2018-02-24T06:04:54.796Z,17.20
2018-02-24T06:07:22.343Z,18.00
2018-02-24T06:09:51.826Z,17.55
2018-02-24T06:12:20.333Z,18.05
2018-02-24T06:14:47.854Z,17.08
2018-02-24T06:17:15.368Z,18.55
2018-02-24T06:19:42.883Z,18.37
2018-02-24T06:22:10.392Z,18.45
2018-02-24T06:24:37.904Z,19.62
2018-02-24T06:27:05.613Z,19.25
2018-02-24T06:29:32.946Z,18.65
2018-02-24T06:32:00.300Z,17.85
2018-02-24T06:34:27.651Z,19.05
2018-02-24T06:36:55.172Z,18.62
2018-02-24T06:39:23.509Z,19.08
2018-02-24T06:41:51.017Z,18.20
2018-02-24T06:44:18.528Z,23.25
2018-02-24T06:46:46.044Z,24.83
2018-02-24T06:49:13.554Z,17.87
2018-02-24T06:51:41.073Z,17.77
2018-02-24T06:54:08.588Z,21.92
2018-02-24T06:56:36.125Z,17.62
2018-02-24T06:59:03.698Z,17.42
2018-02-24T07:01:31.207Z,16.55
2018-02-24T07:03:58.709Z,18.15
2018-02-24T07:06:28.173Z,17.77
2018-02-24T07:08:55.695Z,17.75
2018-02-24T07:11:23.194Z,17.40
2018-02-24T07:13:50.731Z,16.05
2018-02-24T07:16:18.237Z,17.80
2018-02-24T07:18:45.750Z,16.70
2018-02-24T07:21:13.265Z,16.85
2018-02-24T07:23:42.713Z,16.70
2018-02-24T07:26:12.159Z,16.50
2018-02-24T07:28:39.678Z,18.00
2018-02-24T07:31:07.214Z,17.05
2018-02-24T07:33:34.725Z,18.83
2018-02-24T07:36:02.240Z,18.23
2018-02-24T07:38:29.753Z,16.98
2018-02-24T07:40:57.291Z,18.98
2018-02-24T07:43:24.646Z,17.00
2018-02-24T07:45:52.157Z,19.12
2018-02-24T07:48:19.665Z,17.70
2018-02-24T07:50:47.197Z,18.35
2018-02-24T07:53:15.733Z,20.30
2018-02-24T07:55:43.249Z,16.58
2018-02-24T07:58:10.765Z,18.52
2018-02-24T08:00:38.298Z,16.80
2018-02-24T08:03:05.883Z,23.65
2018-02-24T08:05:33.395Z,18.58
2018-02-24T08:08:00.914Z,17.00
2018-02-24T08:10:28.425Z,18.15
2018-02-24T08:12:55.943Z,17.52
2018-02-24T08:15:23.449Z,16.90
2018-02-24T08:17:50.977Z,15.60
2018-02-24T08:20:18.509Z,17.70
2018-02-24T08:22:46.014Z,16.58
2018-02-24T08:25:15.449Z,15.48
2018-02-24T08:27:43.984Z,17.40
2018-02-24T08:30:12.513Z,19.37
2018-02-24T08:32:40.030Z,16.40
2018-02-24T08:35:07.542Z,18.23
2018-02-24T08:37:35.060Z,17.30
2018-02-24T08:40:02.614Z,21.50
2018-02-24T08:42:30.123Z,18.20
2018-02-24T08:44:57.650Z,23.77
2018-02-24T08:47:25.166Z,18.85
2018-02-24T08:49:52.687Z,18.90
2018-02-24T08:52:20.192Z,18.70
2018-02-24T08:54:47.705Z,16.62
2018-02-24T08:57:15.202Z,16.55
2018-02-24T08:59:42.718Z,16.20
2018-02-24T09:02:10.234Z,15.68
2018-02-24T09:04:37.763Z,17.60
2018-02-24T09:07:05.278Z,14.60
2018-02-24T09:09:32.785Z,15.20
2018-02-24T09:12:00.301Z,15.63
2018-02-24T09:14:27.862Z,14.20
2018-02-24T09:16:55.378Z,15.10
2018-02-24T09:19:22.938Z,16.20
2018-02-24T09:21:50.454Z,15.70
2018-02-24T09:24:19.874Z,15.73
2018-02-24T09:26:47.387Z,16.17
2018-02-24T09:29:14.897Z,15.88
2018-02-24T09:31:42.411Z,15.40
2018-02-24T09:34:09.932Z,15.65
2018-02-24T09:36:37.452Z,15.35
2018-02-24T09:39:04.736Z,15.80
2018-02-24T09:41:32.240Z,15.73
2018-02-24T09:43:59.765Z,15.77
2018-02-24T09:46:27.272Z,15.20
2018-02-24T09:48:54.786Z,14.75
2018-02-24T09:51:22.342Z,14.95
2018-02-24T09:53:51.825Z,14.05
2018-02-24T09:56:19.338Z,14.07
2018-02-24T09:58:46.883Z,14.98
2018-02-24T10:01:14.410Z,14.57
2018-02-24T10:03:41.916Z,14.93
2018-02-24T10:06:09.429Z,13.85
2018-02-24T10:08:36.942Z,13.93
2018-02-24T10:11:04.457Z,13.95
2018-02-24T10:13:31.973Z,13.13
2018-02-24T10:15:59.495Z,13.75
2018-02-24T10:18:27.009Z,14.70
2018-02-24T10:20:54.537Z,14.60
2018-02-24T10:23:22.075Z,13.02
2018-02-24T10:25:49.631Z,12.93
2018-02-24T10:28:18.150Z,12.32
2018-02-24T10:30:45.685Z,12.45
2018-02-24T10:33:13.205Z,12.70
2018-02-24T10:35:40.735Z,11.90
2018-02-24T10:38:08.767Z,11.90
2018-02-24T10:40:37.362Z,12.18
2018-02-24T10:43:04.997Z,12.63
2018-02-24T10:45:32.517Z,13.07
2018-02-24T10:48:00.845Z,11.20
2018-02-24T10:50:29.344Z,12.75
2018-02-24T10:52:56.850Z,11.98
2018-02-24T10:55:24.362Z,11.57
2018-02-24T10:57:51.885Z,12.80
2018-02-24T11:00:19.428Z,12.05
2018-02-24T11:02:46.937Z,11.23
2018-02-24T11:05:14.467Z,11.05
2018-02-24T11:07:41.984Z,11.75
2018-02-24T11:10:09.502Z,11.93
2018-02-24T11:12:37.011Z,10.93
2018-02-24T11:15:04.567Z,11.80
2018-02-24T11:17:32.093Z,10.45
2018-02-24T11:19:59.613Z,10.48
2018-02-24T11:22:27.133Z,12.32
2018-02-24T11:24:54.646Z,10.50
2018-02-24T11:27:22.186Z,11.18
2018-02-24T11:29:49.714Z,11.15
2018-02-24T11:32:17.229Z,10.23
2018-02-24T11:34:44.745Z,10.75
2018-02-24T11:37:12.283Z,10.63
2018-02-24T11:39:40.660Z,9.68
2018-02-24T11:42:07.981Z,10.02
2018-02-24T11:44:35.495Z,11.12
2018-02-24T11:47:03.023Z,10.00
2018-02-24T11:49:30.554Z,10.77
2018-02-24T11:51:58.109Z,11.15
2018-02-24T11:54:25.640Z,9.98
2018-02-24T11:56:54.161Z,10.57
2018-02-24T11:59:21.687Z,10.32
2018-02-24T12:01:49.211Z,10.43
2018-02-24T12:04:16.736Z,10.57
2018-02-24T12:06:44.272Z,10.77
2018-02-24T12:09:11.806Z,10.18
2018-02-24T12:11:39.319Z,10.52
2018-02-24T12:14:06.860Z,8.65
2018-02-24T12:16:34.381Z,9.50
2018-02-24T12:19:01.913Z,10.98
2018-02-24T12:21:29.437Z,9.57
2018-02-24T12:23:56.974Z,9.73
2018-02-24T12:26:24.505Z,8.52
2018-02-24T12:28:52.010Z,9.50
2018-02-24T12:31:19.524Z,8.40
2018-02-24T12:33:47.056Z,10.07
2018-02-24T12:36:15.566Z,9.00
2018-02-24T12:38:42.893Z,9.63
2018-02-24T12:41:10.402Z,9.65
2018-02-24T12:43:37.916Z,10.50
2018-02-24T12:46:05.438Z,9.77
2018-02-24T12:48:32.955Z,9.32
2018-02-24T12:51:00.475Z,10.55
2018-02-24T12:53:27.990Z,10.50
2018-02-24T12:55:55.514Z,11.35
2018-02-24T12:58:23.069Z,10.85
2018-02-24T13:00:50.600Z,12.13
2018-02-24T13:03:18.124Z,12.07
2018-02-24T13:05:45.362Z,10.90
2018-02-24T13:08:12.585Z,11.53
2018-02-24T13:10:39.829Z,13.10
2018-02-24T13:13:08.994Z,11.70
2018-02-24T13:15:36.229Z,12.83
2018-02-24T13:18:05.433Z,11.53
2018-02-24T13:20:32.686Z,12.27
2018-02-24T13:23:01.860Z,13.13
2018-02-24T13:25:29.112Z,11.87
2018-02-24T13:27:56.520Z,12.80
2018-02-24T13:30:23.749Z,12.00
2018-02-24T13:32:50.801Z,11.80
2018-02-24T13:35:18.032Z,10.33
2018-02-24T13:37:47.193Z,11.20
2018-02-24T13:40:14.453Z,10.40
2018-02-24T13:42:41.685Z,10.30
2018-02-24T13:45:08.910Z,11.73
2018-02-24T13:47:36.137Z,12.13
2018-02-24T13:50:03.368Z,10.90
2018-02-24T13:52:30.602Z,11.23
2018-02-24T13:54:57.842Z,10.33
2018-02-24T13:57:25.065Z,10.60
2018-02-24T13:59:54.218Z,11.70
2018-02-24T14:02:21.462Z,10.67
2018-02-24T14:04:50.650Z,9.63
2018-02-24T14:07:17.887Z,10.60
2018-02-24T14:09:45.130Z,9.17
2018-02-24T14:12:12.357Z,10.77
2018-02-24T14:14:39.585Z,9.03
2018-02-24T14:17:06.829Z,10.17
2018-02-24T14:19:34.057Z,10.23
2018-02-24T14:22:01.315Z,9.63
2018-02-24T14:24:28.521Z,11.40
2018-02-24T14:26:55.757Z,10.50
2018-02-24T14:29:22.993Z,10.60
2018-02-24T14:31:50.427Z,10.30
2018-02-24T14:34:17.657Z,9.80
2018-02-24T14:36:44.887Z,10.40
2018-02-24T14:39:12.309Z,10.67
2018-02-24T14:41:39.541Z,11.00
2018-02-24T14:44:06.776Z,11.00
2018-02-24T14:46:35.966Z,11.47
2018-02-24T14:49:03.207Z,10.60
2018-02-24T14:51:30.453Z,11.40
2018-02-24T14:53:59.663Z,10.80
2018-02-24T14:56:26.919Z,9.93
2018-02-24T14:58:54.334Z,11.00
2018-02-24T15:01:21.571Z,11.43
2018-02-24T15:03:48.802Z,11.30
2018-02-24T15:06:15.896Z,11.17
2018-02-24T15:08:43.118Z,12.00
2018-02-24T15:11:10.353Z,11.07
2018-02-24T15:13:37.590Z,11.50
2018-02-24T15:16:04.822Z,12.13
2018-02-24T15:18:32.081Z,11.17
2018-02-24T15:20:59.129Z,10.80
2018-02-24T15:23:26.358Z,9.40
2018-02-24T15:25:54.426Z,11.07
2018-02-24T15:28:21.482Z,10.20
2018-02-24T15:30:48.728Z,9.63
2018-02-24T15:33:15.786Z,10.57
2018-02-24T15:35:43.837Z,11.10
2018-02-24T15:38:11.071Z,10.17
2018-02-24T15:40:38.316Z,10.30
2018-02-24T15:43:05.547Z,10.60
2018-02-24T15:45:33.067Z,9.20
2018-02-24T15:48:02.238Z,10.57
2018-02-24T15:50:29.762Z,9.60
2018-02-24T15:52:56.809Z,10.37
2018-02-24T15:55:24.050Z,11.20
2018-02-24T15:57:53.206Z,9.87
2018-02-24T16:00:22.327Z,9.82
2018-02-24T16:02:50.664Z,10.50
2018-02-24T16:05:17.905Z,10.47
2018-02-24T16:07:45.496Z,11.02
2018-02-24T16:10:13.165Z,11.30
2018-02-24T16:12:40.494Z,11.20
2018-02-24T16:15:08.014Z,9.82
2018-02-24T16:17:35.540Z,10.23
2018-02-24T16:20:03.058Z,9.85
2018-02-24T16:22:30.415Z,10.07
2018-02-24T16:24:57.753Z,9.40
2018-02-24T16:27:25.269Z,9.20
2018-02-24T16:29:52.789Z,8.95
2018-02-24T16:32:20.306Z,8.43
2018-02-24T16:34:47.814Z,8.65
2018-02-24T16:37:17.312Z,10.38
2018-02-24T16:39:44.834Z,9.15
2018-02-24T16:42:12.392Z,11.50
2018-02-24T16:44:39.930Z,10.50
2018-02-24T16:47:07.446Z,8.93
2018-02-24T16:49:34.964Z,11.12
2018-02-24T16:52:02.484Z,9.10
2018-02-24T16:54:30.001Z,9.32
2018-02-24T16:56:57.690Z,8.18
2018-02-24T16:59:25.213Z,8.95
2018-02-24T17:01:52.733Z,8.50
2018-02-24T17:04:20.262Z,9.02
2018-02-24T17:06:47.796Z,8.60
2018-02-24T17:09:15.343Z,8.60
2018-02-24T17:11:42.859Z,8.65
2018-02-24T17:14:10.387Z,8.25
2018-02-24T17:16:37.913Z,8.95
2018-02-24T17:19:05.430Z,8.13
2018-02-24T17:21:32.946Z,7.82
2018-02-24T17:24:00.279Z,9.23
2018-02-24T17:26:27.797Z,7.37
2018-02-24T17:28:55.306Z,8.82
2018-02-24T17:31:22.822Z,9.77
2018-02-24T17:33:50.349Z,8.98
2018-02-24T17:36:17.680Z,8.65
2018-02-24T17:38:45.018Z,8.63
2018-02-24T17:41:12.556Z,7.62
2018-02-24T17:43:40.086Z,7.22
2018-02-24T17:46:07.598Z,7.68
2018-02-24T17:48:35.137Z,9.02
2018-02-24T17:51:02.702Z,9.15
2018-02-24T17:53:30.258Z,9.00
2018-02-24T17:55:57.774Z,10.68
2018-02-24T17:58:27.277Z,10.35
2018-02-24T18:00:54.802Z,9.52
2018-02-24T18:03:22.495Z,8.35
2018-02-24T18:05:51.024Z,8.35
2018-02-24T18:08:18.564Z,10.02
2018-02-24T18:10:46.094Z,7.97
2018-02-24T18:13:13.613Z,8.63
2018-02-24T18:15:41.183Z,8.73
2018-02-24T18:18:08.703Z,7.78
2018-02-24T18:20:36.407Z,8.43
2018-02-24T18:23:03.923Z,7.80
2018-02-24T18:25:31.513Z,6.85
2018-02-24T18:27:59.034Z,8.35
2018-02-24T18:30:26.545Z,8.68
2018-02-24T18:32:54.066Z,7.65
2018-02-24T18:35:21.584Z,7.70
2018-02-24T18:37:49.101Z,8.18
2018-02-24T18:40:16.645Z,7.37
2018-02-24T18:42:44.190Z,7.30
2018-02-24T18:45:11.709Z,6.82
2018-02-24T18:47:39.216Z,8.00
2018-02-24T18:50:06.745Z,8.77
2018-02-24T18:52:34.259Z,7.60
2018-02-24T18:55:02.597Z,7.95
2018-02-24T18:57:30.122Z,7.57
2018-02-24T18:59:57.647Z,8.00
2018-02-24T19:02:25.171Z,6.70
2018-02-24T19:04:52.681Z,7.93
2018-02-24T19:07:20.207Z,7.30
2018-02-24T19:09:47.532Z,8.57
2018-02-24T19:12:15.080Z,7.25
2018-02-24T19:14:42.403Z,7.62
2018-02-24T19:17:09.733Z,7.45
2018-02-24T19:19:37.078Z,8.30
2018-02-24T19:22:05.585Z,8.57
2018-02-24T19:24:34.126Z,7.32
2018-02-24T19:27:01.637Z,6.75
2018-02-24T19:29:28.971Z,7.43
2018-02-24T19:31:56.506Z,7.70
2018-02-24T19:34:25.975Z,6.18
2018-02-24T19:36:54.490Z,6.80
2018-02-24T19:39:23.951Z,10.80
2018-02-24T19:41:51.473Z,7.25
2018-02-24T19:44:18.994Z,5.87
2018-02-24T19:46:46.527Z,7.47
2018-02-24T19:49:14.058Z,6.25
2018-02-24T19:51:41.576Z,6.05
2018-02-24T19:54:10.071Z,7.65
2018-02-24T19:56:37.596Z,6.35
2018-02-24T19:59:05.118Z,6.22
2018-02-24T20:01:32.640Z,6.32
2018-02-24T20:04:00.163Z,6.10
2018-02-24T20:06:27.565Z,6.25
2018-02-24T20:08:55.082Z,5.90
2018-02-24T20:11:24.589Z,6.07
2018-02-24T20:13:52.104Z,6.50
2018-02-24T20:16:20.865Z,6.68
2018-02-24T20:18:48.386Z,6.72
2018-02-24T20:21:15.934Z,6.72
2018-02-24T20:23:43.446Z,5.80
2018-02-24T20:26:10.971Z,7.43
2018-02-24T20:28:38.486Z,7.45
2018-02-24T20:31:06.014Z,6.75
2018-02-24T20:33:33.534Z,7.30
2018-02-24T20:36:01.059Z,7.75
2018-02-24T20:38:28.588Z,6.90
2018-02-24T20:40:56.101Z,6.57
2018-02-24T20:43:23.631Z,8.40
2018-02-24T20:45:51.186Z,7.97
2018-02-24T20:48:18.703Z,6.68
2018-02-24T20:50:46.217Z,6.35
2018-02-24T20:53:13.728Z,7.75
2018-02-24T20:55:41.069Z,8.70
2018-02-24T20:58:08.601Z,7.10
2018-02-24T21:00:36.121Z,8.77
2018-02-24T21:03:03.646Z,6.75
2018-02-24T21:05:31.166Z,5.82
2018-02-24T21:07:58.682Z,8.93
2018-02-24T21:10:27.208Z,6.37
2018-02-24T21:12:54.714Z,7.72
2018-02-24T21:15:22.239Z,6.55
2018-02-24T21:17:49.948Z,5.80
2018-02-24T21:20:17.458Z,5.90
2018-02-24T21:22:45.182Z,5.80
2018-02-24T21:25:12.706Z,8.07
2018-02-24T21:27:41.234Z,7.18
2018-02-24T21:30:09.740Z,5.90
2018-02-24T21:32:37.065Z,6.15
2018-02-24T21:35:04.395Z,5.80
2018-02-24T21:37:31.901Z,6.05
2018-02-24T21:39:59.410Z,4.82
2018-02-24T21:42:26.913Z,6.10
2018-02-24T21:44:54.430Z,6.37
2018-02-24T21:47:22.011Z,5.47
2018-02-24T21:49:49.545Z,5.90
2018-02-24T21:52:17.061Z,5.65
2018-02-24T21:54:44.583Z,5.57
2018-02-24T21:57:11.945Z,4.90
2018-02-24T21:59:39.466Z,5.30
2018-02-24T22:02:07.400Z,4.90
2018-02-24T22:04:34.729Z,5.20
2018-02-24T22:07:03.240Z,4.10
2018-02-24T22:09:30.842Z,4.37
2018-02-24T22:11:58.390Z,4.10
2018-02-24T22:14:25.910Z,4.80
2018-02-24T22:16:53.428Z,4.45
2018-02-24T22:19:20.956Z,3.67
2018-02-24T22:21:48.617Z,4.37
2018-02-24T22:24:17.686Z,4.68
2018-02-24T22:26:45.218Z,4.43
2018-02-24T22:29:12.732Z,3.83
2018-02-24T22:31:40.245Z,4.50
2018-02-24T22:34:07.756Z,4.30
2018-02-24T22:36:35.265Z,4.25
2018-02-24T22:39:02.774Z,4.75
2018-02-24T22:41:30.286Z,3.87
2018-02-24T22:43:57.802Z,5.22
2018-02-24T22:46:25.313Z,4.05
2018-02-24T22:48:58.323Z,4.37
2018-02-24T22:51:26.928Z,3.65
2018-02-24T22:53:54.439Z,8.82
2018-02-24T22:56:21.962Z,4.00
2018-02-24T22:58:50.479Z,4.75
2018-02-24T23:01:17.992Z,3.90
2018-02-24T23:03:45.523Z,6.60
2018-02-24T23:06:13.046Z,4.05
2018-02-24T23:08:40.554Z,3.50
2018-02-24T23:11:08.070Z,5.05
2018-02-24T23:13:37.505Z,3.92
2018-02-24T23:16:05.858Z,4.25
2018-02-24T23:18:33.391Z,2.60
2018-02-24T23:21:00.908Z,3.10
2018-02-24T23:23:28.430Z,3.42
2018-02-24T23:25:55.946Z,3.55
2018-02-24T23:28:23.460Z,3.50
2018-02-24T23:30:50.964Z,4.03
2018-02-24T23:33:18.479Z,3.40
2018-02-24T23:35:46.018Z,2.95
2018-02-24T23:38:13.527Z,3.62
2018-02-24T23:40:41.840Z,3.53
2018-02-24T23:43:09.357Z,3.75
2018-02-24T23:45:36.870Z,3.47
2018-02-24T23:48:04.199Z,3.45
2018-02-24T23:50:31.520Z,3.12
2018-02-24T23:52:58.849Z,3.55
2018-02-24T23:55:26.174Z,2.90
2018-02-24T23:57:53.686Z,3.55
